CCA133 VHHH-ZSAM
Flight info
| Callsign | CCA133 |
|---|---|
| Flight time | N/A |
| Altitude | 24600 |
| Route | LEKEN1X/07R LEKEN V601 DOTMI/K0793S1010 A470 TEBON TEBON8X |
| Aircraft | A320/M-SDE3GHIJ2J3J5M1RVWXY/LB2D1 |
Departure
| Time | N/A |
|---|---|
| Airport | Hong Kong International Airport (VHHH) |
Arrival
| Time | 2026-05-07 13:13 |
|---|---|
| Airport | Xiamen Gaoqi International Airport (ZSAM) |
| Time | Latitude | Longitude | Altitude | Speed | Heading |
|---|---|---|---|---|---|
| 2026-05-07 12:44 | 22.42189 | 115.92689 | 24514 ft | 450 kts | 34° |
| 2026-05-07 12:45 | 22.44698 | 115.94724 | 24513 ft | 450 kts | 34° |
| 2026-05-07 12:45 | 22.47223 | 115.96775 | 24510 ft | 450 kts | 34° |
| 2026-05-07 12:45 | 22.49714 | 115.98798 | 24507 ft | 451 kts | 34° |
| 2026-05-07 12:45 | 22.52241 | 116.00853 | 24506 ft | 451 kts | 34° |
| 2026-05-07 12:46 | 22.54735 | 116.02881 | 24508 ft | 451 kts | 34° |
| 2026-05-07 12:46 | 22.57268 | 116.04942 | 24504 ft | 450 kts | 34° |
| 2026-05-07 12:46 | 22.59758 | 116.06969 | 24506 ft | 450 kts | 34° |
| 2026-05-07 12:46 | 22.62270 | 116.09016 | 24503 ft | 450 kts | 34° |
| 2026-05-07 12:47 | 22.64754 | 116.11040 | 24502 ft | 450 kts | 34° |
| 2026-05-07 12:47 | 22.67249 | 116.13075 | 24506 ft | 450 kts | 34° |
| 2026-05-07 12:47 | 22.69752 | 116.15119 | 24505 ft | 450 kts | 34° |
| 2026-05-07 12:47 | 22.72259 | 116.17163 | 24503 ft | 450 kts | 34° |
| 2026-05-07 12:48 | 22.74743 | 116.19209 | 24503 ft | 451 kts | 34° |
| 2026-05-07 12:48 | 22.77255 | 116.21291 | 24509 ft | 451 kts | 34° |
| 2026-05-07 12:48 | 22.79732 | 116.23346 | 24512 ft | 452 kts | 34° |
| 2026-05-07 12:48 | 22.82223 | 116.25415 | 24516 ft | 452 kts | 34° |
| 2026-05-07 12:49 | 22.84730 | 116.27498 | 24516 ft | 452 kts | 34° |
| 2026-05-07 12:49 | 22.87238 | 116.29582 | 24515 ft | 451 kts | 34° |
| 2026-05-07 12:49 | 22.89713 | 116.31640 | 24515 ft | 451 kts | 34° |
| 2026-05-07 12:49 | 22.92197 | 116.33707 | 24517 ft | 451 kts | 34° |
| 2026-05-07 12:50 | 22.94688 | 116.35779 | 24518 ft | 451 kts | 34° |
| 2026-05-07 12:50 | 22.97180 | 116.37839 | 24517 ft | 451 kts | 34° |
| 2026-05-07 12:50 | 22.99695 | 116.39910 | 24517 ft | 451 kts | 34° |
| 2026-05-07 12:50 | 23.02181 | 116.41958 | 24519 ft | 451 kts | 34° |
| 2026-05-07 12:51 | 23.04703 | 116.44039 | 24519 ft | 451 kts | 34° |
| 2026-05-07 12:51 | 23.07183 | 116.46086 | 24514 ft | 451 kts | 34° |
| 2026-05-07 12:51 | 23.09699 | 116.48164 | 24514 ft | 452 kts | 34° |
| 2026-05-07 12:51 | 23.12169 | 116.50209 | 24516 ft | 452 kts | 34° |
| 2026-05-07 12:52 | 23.14690 | 116.52297 | 24517 ft | 452 kts | 34° |
| 2026-05-07 12:52 | 23.17181 | 116.54361 | 24518 ft | 452 kts | 34° |
| 2026-05-07 12:52 | 23.19686 | 116.56436 | 24522 ft | 452 kts | 34° |
| 2026-05-07 12:52 | 23.22191 | 116.58514 | 24448 ft | 453 kts | 34° |
| 2026-05-07 12:53 | 23.24685 | 116.60585 | 24203 ft | 451 kts | 34° |
| 2026-05-07 12:53 | 23.27206 | 116.62678 | 23959 ft | 449 kts | 34° |
| 2026-05-07 12:53 | 23.29690 | 116.64741 | 23715 ft | 448 kts | 34° |
| 2026-05-07 12:53 | 23.32157 | 116.66791 | 23477 ft | 447 kts | 34° |
| 2026-05-07 12:54 | 23.34700 | 116.68904 | 23245 ft | 466 kts | 34° |
| 2026-05-07 12:54 | 23.37312 | 116.71074 | 23006 ft | 484 kts | 35° |
| 2026-05-07 12:54 | 23.40058 | 116.73357 | 22759 ft | 500 kts | 35° |
| 2026-05-07 12:54 | 23.42792 | 116.75739 | 22515 ft | 505 kts | 38° |
| 2026-05-07 12:55 | 23.45404 | 116.78285 | 22282 ft | 506 kts | 41° |
| 2026-05-07 12:55 | 23.47895 | 116.80991 | 22054 ft | 506 kts | 44° |
| 2026-05-07 12:55 | 23.50345 | 116.83761 | 21822 ft | 505 kts | 44° |
| 2026-05-07 12:55 | 23.52765 | 116.86523 | 21594 ft | 504 kts | 44° |
| 2026-05-07 12:56 | 23.55157 | 116.89256 | 21366 ft | 501 kts | 44° |
| 2026-05-07 12:56 | 23.57586 | 116.92029 | 21150 ft | 499 kts | 44° |
| 2026-05-07 12:56 | 23.59968 | 116.94745 | 20983 ft | 498 kts | 44° |
| 2026-05-07 12:56 | 23.62345 | 116.97450 | 20830 ft | 497 kts | 44° |
| 2026-05-07 12:57 | 23.64745 | 117.00182 | 20689 ft | 496 kts | 44° |
| 2026-05-07 12:57 | 23.67141 | 117.02913 | 20569 ft | 495 kts | 44° |
| 2026-05-07 12:57 | 23.69512 | 117.05615 | 20463 ft | 494 kts | 44° |
| 2026-05-07 12:57 | 23.71911 | 117.08350 | 20342 ft | 490 kts | 44° |
| 2026-05-07 12:58 | 23.74215 | 117.10980 | 19856 ft | 483 kts | 44° |
| 2026-05-07 12:58 | 23.76578 | 117.13618 | 19005 ft | 479 kts | 42° |
| 2026-05-07 12:58 | 23.78995 | 117.16047 | 18217 ft | 474 kts | 40° |
| 2026-05-07 12:58 | 23.81446 | 117.18439 | 17462 ft | 469 kts | 40° |
| 2026-05-07 12:59 | 23.83883 | 117.20804 | 16742 ft | 463 kts | 40° |
| 2026-05-07 12:59 | 23.86273 | 117.23126 | 16093 ft | 459 kts | 40° |
| 2026-05-07 12:59 | 23.88646 | 117.25436 | 15481 ft | 455 kts | 40° |
| 2026-05-07 12:59 | 23.90987 | 117.27720 | 14879 ft | 450 kts | 40° |
| 2026-05-07 13:00 | 23.93321 | 117.30001 | 14272 ft | 447 kts | 40° |
| 2026-05-07 13:00 | 23.95610 | 117.32242 | 13678 ft | 443 kts | 40° |
| 2026-05-07 13:00 | 23.97915 | 117.34499 | 13084 ft | 438 kts | 40° |
| 2026-05-07 13:00 | 24.00175 | 117.36713 | 12498 ft | 434 kts | 40° |
| 2026-05-07 13:01 | 24.02404 | 117.38895 | 11930 ft | 429 kts | 40° |
| 2026-05-07 13:01 | 24.04617 | 117.41065 | 11362 ft | 426 kts | 40° |
| 2026-05-07 13:01 | 24.06796 | 117.43206 | 10911 ft | 422 kts | 40° |
| 2026-05-07 13:01 | 24.08986 | 117.45358 | 10678 ft | 422 kts | 40° |
| 2026-05-07 13:02 | 24.11182 | 117.47513 | 10456 ft | 421 kts | 40° |
| 2026-05-07 13:02 | 24.13329 | 117.49629 | 10253 ft | 420 kts | 41° |
| 2026-05-07 13:02 | 24.15373 | 117.51910 | 10087 ft | 417 kts | 45° |
| 2026-05-07 13:02 | 24.17329 | 117.54234 | 9614 ft | 404 kts | 46° |
| 2026-05-07 13:03 | 24.19139 | 117.56418 | 9133 ft | 381 kts | 46° |
| 2026-05-07 13:03 | 24.20916 | 117.58564 | 8667 ft | 376 kts | 46° |
| 2026-05-07 13:03 | 24.22659 | 117.60662 | 8318 ft | 372 kts | 46° |
| 2026-05-07 13:03 | 24.24409 | 117.62764 | 7990 ft | 369 kts | 46° |
| 2026-05-07 13:04 | 24.26119 | 117.64816 | 7661 ft | 366 kts | 46° |
| 2026-05-07 13:04 | 24.27836 | 117.66877 | 7182 ft | 361 kts | 46° |
| 2026-05-07 13:04 | 24.29513 | 117.68889 | 6639 ft | 358 kts | 46° |
| 2026-05-07 13:04 | 24.31180 | 117.70892 | 6208 ft | 352 kts | 46° |
| 2026-05-07 13:05 | 24.32794 | 117.72831 | 5770 ft | 333 kts | 46° |
| 2026-05-07 13:05 | 24.34298 | 117.74642 | 5351 ft | 310 kts | 47° |
| 2026-05-07 13:05 | 24.35692 | 117.76322 | 5009 ft | 290 kts | 46° |
| 2026-05-07 13:05 | 24.37025 | 117.77924 | 4927 ft | 273 kts | 46° |
| 2026-05-07 13:06 | 24.37636 | 117.78660 | 4922 ft | 261 kts | 46° |
| 2026-05-07 13:06 | 24.38807 | 117.80070 | 4913 ft | 240 kts | 46° |
| 2026-05-07 13:06 | 24.39729 | 117.81512 | 4881 ft | 227 kts | 69° |
| 2026-05-07 13:06 | 24.40018 | 117.83194 | 4659 ft | 225 kts | 84° |
| 2026-05-07 13:07 | 24.40122 | 117.84922 | 4376 ft | 225 kts | 85° |
| 2026-05-07 13:07 | 24.40218 | 117.86617 | 4101 ft | 223 kts | 85° |
| 2026-05-07 13:07 | 24.40329 | 117.88306 | 3840 ft | 221 kts | 85° |
| 2026-05-07 13:07 | 24.40443 | 117.89967 | 3639 ft | 214 kts | 84° |
| 2026-05-07 13:08 | 24.40559 | 117.91573 | 3356 ft | 212 kts | 84° |
| 2026-05-07 13:08 | 24.40836 | 117.93139 | 3078 ft | 208 kts | 70° |
| 2026-05-07 13:08 | 24.41463 | 117.94541 | 2885 ft | 202 kts | 57° |
| 2026-05-07 13:08 | 24.42278 | 117.95804 | 2911 ft | 202 kts | 51° |
| 2026-05-07 13:09 | 24.43163 | 117.97028 | 2930 ft | 204 kts | 50° |
| 2026-05-07 13:09 | 24.44042 | 117.98229 | 2889 ft | 204 kts | 51° |
| 2026-05-07 13:09 | 24.44934 | 117.99463 | 2705 ft | 204 kts | 51° |
| 2026-05-07 13:09 | 24.45808 | 118.00686 | 2442 ft | 203 kts | 52° |
| 2026-05-07 13:10 | 24.46672 | 118.01901 | 2198 ft | 202 kts | 52° |
| 2026-05-07 13:10 | 24.47529 | 118.03108 | 1944 ft | 198 kts | 52° |
| 2026-05-07 13:10 | 24.48361 | 118.04275 | 1671 ft | 189 kts | 52° |
| 2026-05-07 13:10 | 24.49152 | 118.05385 | 1414 ft | 178 kts | 53° |
| 2026-05-07 13:11 | 24.49892 | 118.06422 | 1191 ft | 167 kts | 53° |
| 2026-05-07 13:11 | 24.50579 | 118.07386 | 985 ft | 157 kts | 52° |
| 2026-05-07 13:11 | 24.51244 | 118.08318 | 790 ft | 152 kts | 52° |
| 2026-05-07 13:11 | 24.51893 | 118.09229 | 606 ft | 153 kts | 53° |
| 2026-05-07 13:12 | 24.52536 | 118.10128 | 430 ft | 146 kts | 52° |
| 2026-05-07 13:12 | 24.53147 | 118.10980 | 181 ft | 137 kts | 53° |
| 2026-05-07 13:12 | 24.53736 | 118.11811 | 85 ft | 134 kts | 53° |
| 2026-05-07 13:12 | 24.54232 | 118.12521 | 74 ft | 93 kts | 52° |
| 2026-05-07 13:13 | 24.54533 | 118.12934 | 74 ft | 44 kts | 50° |
| 2026-05-07 13:13 | 24.54649 | 118.13104 | 74 ft | 23 kts | 60° |
| 2026-05-07 13:13 | 24.54705 | 118.13274 | 74 ft | 23 kts | 83° |
| 2026-05-07 13:13 | 24.54679 | 118.13397 | 74 ft | 15 kts | 150° |
| 2026-05-07 13:14 | 24.54597 | 118.13479 | 74 ft | 16 kts | 142° |
| 2026-05-07 13:14 | 24.54525 | 118.13553 | 74 ft | 9 kts | 142° |
| 2026-05-07 13:14 | 24.54495 | 118.13577 | 74 ft | 4 kts | 142° |
| 2026-05-07 13:14 | 24.54492 | 118.13579 | 74 ft | 0 kts | 142° |